Currently 84°F in Perris, California, USA
84°F
84°F / 46°F
3 mph NW
0.00"
Saturday, November 16, 2019 1:50 PM PST

Perris, California Weather Summary
Last 36 Hours

Temperature Winds Hourly Humidity Dewpoint
Time Report Norm Report Norm Max Gusts Precip. Rpt. Norm Rpt. Norm Pressure
1,2Sat 01:50 PM  84.3°F  73°F  3 mph NW  4 mph  13 mph  0.00"  17%  29%  32°F  37°F  29.97"
Sat 01:00 PM  83.3°F  73°F  5 mph NW  4 mph  14 mph  0.00"  18%  29%  33°F  38°F  29.98"
Sat 12:00 PM  82.1°F  72°F  5 mph NW  3 mph  13 mph  0.00"  19%  31%  34°F  38°F  30.01"
Sat 11:00 AM  79.7°F  69°F  3 mph NW  3 mph  10 mph  0.00"  23%  37%  38°F  40°F  30.05"
Sat 10:00 AM  69.2°F  65°F  calm  2 mph  5 mph  0.00"  50%  45%  49°F  42°F  30.08"
Sat 09:00 AM  61.6°F  59°F  calm  2 mph  2 mph  0.00"  75%  55%  53°F  43°F  30.09"
Sat 08:00 AM  51.3°F  53°F  calm  2 mph  4 mph  0.00"  95%  64%  50°F  41°F  30.08"
Sat 07:00 AM  48.7°F  49°F  2 mph S  1 mph  5 mph  0.00"  97%  68%  48°F  39°F  30.07"
3Sat 06:21 AM  46.1°F  49°F  2 mph SE  1 mph  5 mph  ----  97%  68%  45°F  39°F  30.06"
Sat 06:00 AM  49.6°F  50°F  4 mph SE  1 mph  5 mph  0.00"  95%  67%  48°F  39°F  30.06"
Sat 05:00 AM  48.2°F  50°F  3 mph NE  1 mph  4 mph  0.00"  96%  66%  47°F  39°F  30.04"
Sat 04:00 AM  48.1°F  51°F  calm  1 mph  5 mph  0.00"  95%  66%  47°F  39°F  30.04"
Sat 03:00 AM  50.1°F  52°F  3 mph S  1 mph  3 mph  0.00"  95%  64%  49°F  40°F  30.04"
Sat 02:00 AM  52.2°F  53°F  calm  1 mph  none  0.00"  95%  63%  51°F  40°F  30.05"
Sat 01:00 AM  53.1°F  54°F  calm  1 mph  5 mph  0.00"  93%  61%  51°F  41°F  30.06"
Sat 12:00 AM  55.4°F  56°F  1 mph N  1 mph  5 mph  0.00"  91%  60%  53°F  41°F  30.05"
Fri 11:00 PM  55.5°F  57°F  calm  1 mph  3 mph  0.00"  87%  58%  52°F  42°F  30.05"
Fri 10:00 PM  57.3°F  59°F  calm  1 mph  5 mph  0.00"  85%  55%  52°F  42°F  30.05"
Fri 09:00 PM  59.4°F  60°F  1 mph NE  2 mph  4 mph  0.00"  84%  53%  54°F  42°F  30.05"
Fri 08:00 PM  60.0°F  62°F  2 mph NE  2 mph  4 mph  0.00"  82%  49%  54°F  42°F  30.05"
Fri 07:00 PM  61.3°F  63°F  1 mph S  3 mph  4 mph  0.00"  77%  46%  54°F  41°F  30.04"
Fri 06:00 PM  63.4°F  65°F  2 mph S  3 mph  10 mph  0.00"  74%  42%  55°F  40°F  30.03"
Fri 05:00 PM  66.6°F  67°F  5 mph NW  4 mph  12 mph  0.00"  55%  38%  49°F  40°F  30.03"
Fri 04:00 PM  75.7°F  71°F  2 mph SW  4 mph  5 mph  0.00"  38%  32%  47°F  38°F  30.01"
Fri 03:00 PM  76.0°F  73°F  calm  4 mph  7 mph  0.00"  39%  29%  49°F  37°F  30.01"
Fri 02:00 PM  76.2°F  73°F  2 mph NW  4 mph  9 mph  0.00"  41%  27%  50°F  36°F  30.04"
Fri 01:00 PM  75.6°F  73°F  3 mph W  4 mph  10 mph  0.00"  43%  28%  51°F  36°F  30.07"
Fri 12:00 PM  73.1°F  72°F  1 mph SW  3 mph  7 mph  0.00"  45%  30%  50°F  37°F  30.11"
Fri 11:00 AM  66.0°F  69°F  3 mph W  3 mph  10 mph  0.00"  65%  35%  53°F  39°F  30.14"
Fri 10:00 AM  64.4°F  65°F  4 mph W  2 mph  6 mph  0.00"  61%  43%  50°F  41°F  30.17"
Fri 09:00 AM  60.9°F  59°F  calm  2 mph  none  0.00"  84%  54%  56°F  42°F  30.16"
Fri 08:00 AM  52.0°F  53°F  calm  2 mph  3 mph  0.00"  96%  63%  51°F  40°F  30.17"
Fri 07:00 AM  48.0°F  49°F  calm  1 mph  3 mph  0.00"  97%  66%  47°F  38°F  30.16"
Fri 06:00 AM  49.9°F  50°F  calm  1 mph  4 mph  0.00"  97%  66%  49°F  38°F  30.16"
Fri 05:00 AM  50.7°F  50°F  calm  1 mph  none  0.00"  97%  65%  50°F  38°F  30.15"
Fri 04:00 AM  51.8°F  51°F  calm  1 mph  2 mph  0.00"  97%  64%  51°F  38°F  30.14"
Fri 03:00 AM  53.5°F  52°F  1 mph SE  1 mph  2 mph  0.00"  95%  63%  52°F  39°F  30.14"
Fri 02:00 AM  53.5°F  52°F  calm  1 mph  3 mph  0.00"  93%  61%  52°F  39°F  30.15"

  1. Current weather data. No green row appears if the current weather data is also the high or low for the current day.
  2. High temperature for the current day.
  3. Low temperature for the current day.

The Perris, California weather pages are a service of WeatherCurrents. Perris is located in Southern California's Inland Empire, south of Riverside and north of Sun City, along the Interstate 215 freeway.
Copyright ©2019  WeatherCurrents. All rights reserved. - Submit questions and comments - Privacy Policy

This page automatically refreshes every 10 minutes.